Time;durP1;ratioP1;P1;durP2;ratioP2;P2;SDS_P1;SDS_P2;PMS_P1;PMS_P2;Temp;Humidity;BMP_temperature;BMP_pressure;BME280_temperature;BME280_humidity;BME280_pressure;Samples;Min_cycle;Max_cycle;Signal;HPM_P1;HPM_P2
2023/01/17 00:02:08;;;;;;;2.47;0.90;;;7.10;79.20;;;;;;5113804;28;20053;-68
2023/01/17 00:10:20;;;;;;;2.27;0.77;;;7.10;79.30;;;;;;5116595;27;20028;-68
2023/01/17 00:12:51;;;;;;;6.93;1.17;;;7.10;79.30;;;;;;5110351;28;20043;-68
2023/01/17 00:15:18;;;;;;;4.82;1.00;;;7.00;79.30;;;;;;5115782;28;20390;-68
2023/01/17 00:17:45;;;;;;;5.77;1.20;;;7.10;79.30;;;;;;5090786;28;20055;-68
2023/01/17 00:26:03;;;;;;;3.83;0.80;;;7.10;79.20;;;;;;5115594;28;20038;-68
2023/01/17 01:35:30;;;;;;;3.87;1.13;;;6.60;78.70;;;;;;5101569;28;20418;-68
2023/01/17 01:37:56;;;;;;;4.00;1.13;;;6.60;78.60;;;;;;5111284;28;20091;-68
2023/01/17 01:40:22;;;;;;;3.40;0.83;;;6.50;78.60;;;;;;5104707;28;20020;-69
2023/01/17 01:42:56;;;;;;;1.27;0.40;;;6.50;78.60;;;;;;5097913;28;20038;-68
2023/01/17 01:45:28;;;;;;;4.63;0.80;;;6.40;78.50;;;;;;5098136;28;20506;-68
2023/01/17 01:48:02;;;;;;;0.88;0.45;;;6.40;78.50;;;;;;5113922;28;20019;-69
2023/01/17 01:50:31;;;;;;;1.23;0.60;;;6.40;78.50;;;;;;5112362;28;20474;-68
2023/01/17 01:52:59;;;;;;;2.37;0.43;;;6.30;78.40;;;;;;5113479;28;20027;-68
2023/01/17 01:55:30;;;;;;;1.30;0.50;;;6.20;78.30;;;;;;5112770;28;20058;-67
2023/01/17 01:58:01;;;;;;;1.25;0.55;;;6.20;78.40;;;;;;5113464;28;20448;-67
2023/01/17 02:00:34;;;;;;;0.53;0.33;;;6.20;78.40;;;;;;5110183;28;20065;-67
2023/01/17 02:03:05;;;;;;;0.57;0.50;;;6.20;78.40;;;;;;5113473;28;20345;-67
2023/01/17 02:05:32;;;;;;;0.43;0.40;;;6.20;78.40;;;;;;5095494;28;20110;-68
2023/01/17 02:08:05;;;;;;;0.97;0.60;;;6.20;78.30;;;;;;5095021;28;20435;-68
2023/01/17 02:10:33;;;;;;;0.77;0.47;;;6.20;78.20;;;;;;5109879;28;20031;-67
2023/01/17 02:12:59;;;;;;;0.80;0.60;;;6.10;78.20;;;;;;5115075;28;20463;-68
2023/01/17 02:15:35;;;;;;;2.00;0.70;;;6.10;78.10;;;;;;5105138;28;20334;-67
2023/01/17 02:18:36;;;;;;;1.87;0.50;;;6.10;78.10;;;;;;5093435;28;20024;-67
2023/01/17 02:21:19;;;;;;;1.20;0.50;;;6.10;78.00;;;;;;5083363;28;20108;-68
2023/01/17 02:24:23;;;;;;;1.33;0.73;;;6.10;78.10;;;;;;5102140;28;20027;-68
2023/01/17 02:27:07;;;;;;;2.10;0.90;;;6.10;78.10;;;;;;5113405;28;20043;-67
2023/01/17 02:29:57;;;;;;;1.50;0.80;;;6.00;78.10;;;;;;5110371;28;20056;-67
2023/01/17 02:32:38;;;;;;;1.63;0.80;;;6.00;78.10;;;;;;5098221;28;20065;-67
2023/01/17 02:35:13;;;;;;;2.35;1.02;;;6.10;78.10;;;;;;5119343;28;20414;-67
2023/01/17 02:37:53;;;;;;;2.97;1.17;;;6.00;78.10;;;;;;5094253;28;20100;-67
2023/01/17 02:40:26;;;;;;;3.33;1.03;;;6.00;78.10;;;;;;5118671;28;20038;-67
2023/01/17 02:42:58;;;;;;;4.73;1.10;;;6.00;78.10;;;;;;5113437;28;20448;-67
2023/01/17 02:45:24;;;;;;;3.07;0.97;;;6.00;78.00;;;;;;5100432;28;20032;-67
2023/01/17 02:47:50;;;;;;;2.33;1.00;;;5.90;78.00;;;;;;5094222;28;20111;-67
2023/01/17 02:50:24;;;;;;;2.07;0.87;;;6.00;78.10;;;;;;5098297;28;20520;-67
2023/01/17 02:52:55;;;;;;;2.03;0.87;;;6.00;78.70;;;;;;5111255;28;20036;-67
2023/01/17 02:55:33;;;;;;;2.45;0.95;;;6.00;78.10;;;;;;5104844;28;20368;-67
2023/01/17 02:58:21;;;;;;;3.30;1.40;;;6.00;78.00;;;;;;5096918;28;20012;-67
2023/01/17 03:01:08;;;;;;;1.67;0.80;;;6.00;77.90;;;;;;5107378;28;20031;-67
2023/01/17 03:03:46;;;;;;;3.97;1.03;;;6.10;77.90;;;;;;5094030;28;20028;-67
2023/01/17 03:06:19;;;;;;;3.00;0.97;;;6.00;77.90;;;;;;5105336;28;20028;-67
2023/01/17 03:08:47;;;;;;;2.17;0.80;;;6.00;78.60;;;;;;5116900;28;20111;-67
2023/01/17 03:11:13;;;;;;;1.80;0.60;;;6.00;78.00;;;;;;5111914;28;20032;-67
2023/01/17 03:13:41;;;;;;;1.17;0.70;;;5.90;78.00;;;;;;5116768;28;20035;-67
2023/01/17 03:16:29;;;;;;;1.33;0.60;;;5.90;78.00;;;;;;5106361;28;20111;-67
2023/01/17 03:18:55;;;;;;;1.13;0.60;;;5.90;77.80;;;;;;5109535;28;20511;-67
2023/01/17 03:21:22;;;;;;;1.97;0.80;;;5.90;77.90;;;;;;5110927;28;20070;-67
2023/01/17 03:23:48;;;;;;;0.50;0.50;;;5.90;77.90;;;;;;5096302;28;20043;-67
2023/01/17 03:26:14;;;;;;;3.07;0.60;;;5.80;77.80;;;;;;5104258;28;20028;-67
2023/01/17 03:28:40;;;;;;;2.30;0.70;;;5.80;77.80;;;;;;5102030;28;20064;-67
2023/01/17 03:31:06;;;;;;;1.70;0.90;;;5.80;77.90;;;;;;5115089;28;20088;-67
2023/01/17 03:33:32;;;;;;;2.33;1.17;;;5.70;77.90;;;;;;5110143;28;20474;-67
2023/01/17 03:35:58;;;;;;;1.70;0.73;;;5.70;78.00;;;;;;5112418;28;20321;-67
2023/01/17 03:38:29;;;;;;;2.73;0.80;;;5.70;78.00;;;;;;5097412;28;20031;-67
2023/01/17 03:40:55;;;;;;;1.83;0.93;;;5.70;78.00;;;;;;5108899;28;20030;-67
2023/01/17 03:43:20;;;;;;;2.93;1.13;;;5.70;77.90;;;;;;5105349;28;20023;-67
2023/01/17 03:45:50;;;;;;;2.90;0.90;;;5.70;77.90;;;;;;5114344;28;20035;-67
2023/01/17 03:48:17;;;;;;;1.97;0.80;;;5.70;77.90;;;;;;5097029;28;20110;-67
2023/01/17 03:50:43;;;;;;;3.10;1.10;;;5.70;77.90;;;;;;5096546;28;20089;-67
2023/01/17 03:53:08;;;;;;;1.93;1.00;;;5.70;77.90;;;;;;5105101;28;20024;-67
2023/01/17 03:55:34;;;;;;;1.20;0.70;;;5.70;77.90;;;;;;5117030;28;20081;-67
2023/01/17 03:58:00;;;;;;;2.90;1.00;;;5.70;77.90;;;;;;5104548;28;20028;-67
2023/01/17 04:00:26;;;;;;;4.37;1.07;;;5.70;78.00;;;;;;5095802;28;20096;-67
2023/01/17 04:02:51;;;;;;;2.20;0.63;;;5.70;78.00;;;;;;5117453;27;20020;-67
2023/01/17 04:05:17;;;;;;;3.53;0.90;;;5.70;78.00;;;;;;5097305;28;20056;-67
2023/01/17 04:07:43;;;;;;;3.50;0.87;;;5.70;77.80;;;;;;5102549;28;20043;-67
2023/01/17 04:10:09;;;;;;;2.63;1.13;;;5.70;77.80;;;;;;5096527;28;20368;-67
2023/01/17 04:12:35;;;;;;;1.73;0.70;;;5.70;77.70;;;;;;5101586;28;20068;-67
2023/01/17 04:15:00;;;;;;;3.47;0.80;;;5.60;77.60;;;;;;5111717;27;20056;-67
2023/01/17 04:17:26;;;;;;;1.37;0.70;;;5.60;77.60;;;;;;5082855;28;20023;-67
2023/01/17 04:19:52;;;;;;;5.50;1.00;;;5.60;77.50;;;;;;5115744;28;20023;-67
2023/01/17 04:22:18;;;;;;;3.07;0.60;;;5.60;77.50;;;;;;5106120;28;20023;-67
2023/01/17 04:24:44;;;;;;;2.57;0.80;;;5.60;77.50;;;;;;5096975;28;20460;-67
2023/01/17 04:27:13;;;;;;;2.80;0.87;;;5.50;78.00;;;;;;5096652;28;20161;-67
2023/01/17 04:29:39;;;;;;;2.17;0.60;;;5.50;77.40;;;;;;5099210;28;20035;-67
2023/01/17 04:32:05;;;;;;;1.70;0.80;;;5.50;77.40;;;;;;5102494;28;20059;-67
2023/01/17 04:34:30;;;;;;;2.17;0.70;;;5.50;77.50;;;;;;5110814;28;20032;-67
2023/01/17 04:36:56;;;;;;;1.63;0.80;;;5.50;77.50;;;;;;5102877;28;20019;-67
2023/01/17 04:39:22;;;;;;;4.27;0.93;;;5.40;77.50;;;;;;5101460;28;20064;-67
2023/01/17 04:41:48;;;;;;;2.57;0.80;;;5.40;77.60;;;;;;5111740;28;20356;-67
2023/01/17 04:44:13;;;;;;;1.93;0.80;;;5.40;77.60;;;;;;5120648;27;20023;-67
2023/01/17 04:46:39;;;;;;;1.23;0.70;;;5.40;77.60;;;;;;5112811;28;20036;-67
2023/01/17 04:49:05;;;;;;;4.53;1.17;;;5.40;77.60;;;;;;5105771;28;20040;-67
2023/01/17 04:51:31;;;;;;;3.17;1.27;;;5.40;77.60;;;;;;5094689;28;20024;-67
2023/01/17 04:53:56;;;;;;;3.60;1.30;;;5.30;77.60;;;;;;5103382;28;20024;-67
2023/01/17 04:56:22;;;;;;;3.50;1.20;;;5.30;77.60;;;;;;5095499;28;20024;-67
2023/01/17 04:58:48;;;;;;;3.73;1.17;;;5.40;77.60;;;;;;5107093;28;20460;-67
2023/01/17 05:01:14;;;;;;;3.93;1.57;;;5.40;77.60;;;;;;5095441;28;20048;-67
2023/01/17 05:03:39;;;;;;;5.77;1.60;;;5.40;77.60;;;;;;5113898;28;20026;-67
2023/01/17 05:06:05;;;;;;;6.90;1.60;;;5.40;77.50;;;;;;5105660;28;20035;-67
2023/01/17 05:08:31;;;;;;;5.23;1.30;;;5.40;77.50;;;;;;5096271;28;20065;-67
2023/01/17 05:10:57;;;;;;;3.73;1.50;;;5.40;77.50;;;;;;5098076;28;20054;-67
2023/01/17 05:13:23;;;;;;;6.60;2.17;;;5.40;77.50;;;;;;5100065;28;20042;-67
2023/01/17 05:15:49;;;;;;;4.50;1.67;;;5.40;77.50;;;;;;5108104;28;20032;-67
2023/01/17 05:18:16;;;;;;;3.60;1.37;;;5.40;77.50;;;;;;5098851;28;20364;-67
2023/01/17 05:20:42;;;;;;;5.47;1.80;;;5.40;77.50;;;;;;5101723;28;20032;-67
2023/01/17 05:23:08;;;;;;;5.97;1.53;;;5.40;77.60;;;;;;5110875;27;20020;-67
2023/01/17 05:25:34;;;;;;;5.50;1.83;;;5.40;77.60;;;;;;5107360;28;20465;-67
2023/01/17 05:28:00;;;;;;;4.43;1.50;;;5.40;77.60;;;;;;5113837;28;20438;-67
2023/01/17 05:30:31;;;;;;;3.33;1.50;;;5.40;77.60;;;;;;5102160;28;20024;-67
2023/01/17 05:32:58;;;;;;;3.57;1.20;;;5.30;77.60;;;;;;5110595;28;20044;-67
2023/01/17 05:35:29;;;;;;;5.30;1.40;;;5.30;77.60;;;;;;5110891;28;20095;-67
2023/01/17 05:37:55;;;;;;;5.65;1.67;;;5.30;77.60;;;;;;5104220;28;20115;-67
2023/01/17 05:40:24;;;;;;;4.67;1.47;;;5.30;77.60;;;;;;5102717;28;20474;-67
2023/01/17 05:42:52;;;;;;;6.43;1.70;;;5.30;77.60;;;;;;5113976;28;20321;-67
2023/01/17 05:45:19;;;;;;;2.30;1.20;;;5.30;77.60;;;;;;5097326;28;20024;-66
2023/01/17 05:47:46;;;;;;;6.07;1.60;;;5.30;77.60;;;;;;5112278;28;20023;-67
2023/01/17 05:50:14;;;;;;;7.13;1.70;;;5.30;77.60;;;;;;5098945;28;20076;-67
2023/01/17 05:52:40;;;;;;;7.30;1.77;;;5.30;77.70;;;;;;5102773;27;20043;-67
2023/01/17 05:55:07;;;;;;;6.63;1.60;;;5.30;77.60;;;;;;5110765;28;20406;-67
2023/01/17 05:57:33;;;;;;;3.93;1.40;;;5.30;78.30;;;;;;5112093;28;20149;-67
2023/01/17 06:00:00;;;;;;;4.53;1.40;;;5.20;77.60;;;;;;5112888;28;20458;-67
2023/01/17 06:02:26;;;;;;;5.97;1.73;;;5.20;77.60;;;;;;5109775;28;20067;-67
2023/01/17 06:04:51;;;;;;;3.43;1.30;;;5.20;77.70;;;;;;5092766;28;20054;-67
2023/01/17 06:07:17;;;;;;;2.90;1.17;;;5.20;77.70;;;;;;5100725;28;20031;-67
2023/01/17 06:09:43;;;;;;;4.80;1.80;;;5.20;77.70;;;;;;5093152;28;20028;-68
2023/01/17 06:12:08;;;;;;;3.97;1.47;;;5.20;77.70;;;;;;5093358;28;20032;-67
2023/01/17 06:14:34;;;;;;;3.13;1.40;;;5.30;77.70;;;;;;5101539;28;20027;-67
2023/01/17 06:17:00;;;;;;;6.13;1.70;;;5.20;77.60;;;;;;5109403;28;20019;-66
2023/01/17 06:19:26;;;;;;;5.93;1.63;;;5.20;77.60;;;;;;5110735;28;20405;-67
2023/01/17 06:21:51;;;;;;;6.43;1.30;;;5.20;77.50;;;;;;5097314;28;20035;-67
2023/01/17 06:24:17;;;;;;;3.13;1.50;;;5.20;77.50;;;;;;5109802;28;20078;-66
2023/01/17 06:26:43;;;;;;;7.23;1.90;;;5.20;77.60;;;;;;5094639;28;20053;-66
2023/01/17 06:29:12;;;;;;;3.87;1.67;;;5.20;77.50;;;;;;5113954;28;20423;-67
2023/01/17 06:31:38;;;;;;;3.23;1.13;;;5.20;77.50;;;;;;5099444;28;20050;-66
2023/01/17 06:34:04;;;;;;;6.33;2.23;;;5.20;77.50;;;;;;5094769;28;20460;-67
2023/01/17 06:36:32;;;;;;;3.57;1.30;;;5.10;77.50;;;;;;5093216;28;20482;-66
2023/01/17 06:38:57;;;;;;;4.90;1.53;;;5.20;77.60;;;;;;5097002;28;20019;-67
2023/01/17 06:41:24;;;;;;;4.97;1.70;;;5.10;77.60;;;;;;5100726;28;20459;-67
2023/01/17 06:43:54;;;;;;;7.20;1.80;;;5.10;77.60;;;;;;5098261;28;20027;-67
2023/01/17 06:46:22;;;;;;;3.10;1.30;;;5.10;77.60;;;;;;5099219;28;20107;-67
2023/01/17 06:48:51;;;;;;;5.13;1.57;;;5.10;77.60;;;;;;5097085;28;20031;-66
2023/01/17 06:51:16;;;;;;;4.50;1.90;;;5.10;77.60;;;;;;5114287;28;20096;-67
2023/01/17 06:53:42;;;;;;;6.17;1.73;;;5.10;77.60;;;;;;5111764;28;20027;-67
2023/01/17 06:56:08;;;;;;;6.97;1.57;;;5.10;77.60;;;;;;5116999;28;20084;-66
2023/01/17 06:58:35;;;;;;;3.83;1.63;;;5.10;77.60;;;;;;5117658;28;20069;-67
2023/01/17 07:01:08;;;;;;;5.43;1.60;;;5.10;77.60;;;;;;5111157;28;20016;-66
2023/01/17 07:03:34;;;;;;;5.47;2.00;;;5.00;77.60;;;;;;5100050;28;20054;-66
2023/01/17 07:06:01;;;;;;;4.97;1.70;;;5.00;77.60;;;;;;5109003;28;20106;-66
2023/01/17 07:08:27;;;;;;;7.63;1.80;;;5.10;77.60;;;;;;5095704;28;20032;-66
2023/01/17 07:10:58;;;;;;;4.40;1.83;;;5.10;77.50;;;;;;5096522;28;20503;-66
2023/01/17 07:13:25;;;;;;;5.63;1.90;;;5.10;77.50;;;;;;5098016;28;20040;-66
2023/01/17 07:15:51;;;;;;;7.97;1.83;;;5.10;77.40;;;;;;5112727;28;20020;-68
2023/01/17 07:18:22;;;;;;;5.00;1.87;;;5.20;77.40;;;;;;5105370;28;20418;-69
2023/01/17 07:20:52;;;;;;;7.57;2.50;;;5.20;77.40;;;;;;5113443;28;20020;-69
2023/01/17 07:23:19;;;;;;;9.97;2.40;;;5.10;77.40;;;;;;5123333;27;20028;-70
2023/01/17 07:25:53;;;;;;;5.20;2.00;;;5.10;77.50;;;;;;5114469;27;20047;-70
2023/01/17 07:28:19;;;;;;;6.07;2.00;;;5.10;77.50;;;;;;5119812;27;20325;-70
2023/01/17 07:30:44;;;;;;;7.70;1.87;;;5.10;77.50;;;;;;5116302;28;20026;-69
2023/01/17 07:33:11;;;;;;;5.80;1.80;;;5.10;77.50;;;;;;5116739;28;20052;-71
2023/01/17 07:35:37;;;;;;;4.43;1.60;;;5.10;77.50;;;;;;5096739;28;20080;-71
2023/01/17 07:38:04;;;;;;;9.60;1.97;;;5.10;77.50;;;;;;5116208;28;20106;-71
2023/01/17 07:40:31;;;;;;;6.27;2.00;;;5.10;77.50;;;;;;5102580;28;20019;-71
2023/01/17 07:43:12;;;;;;;6.67;2.00;;;5.10;77.50;;;;;;5099202;28;20034;-71
2023/01/17 07:45:48;;;;;;;9.32;1.90;;;5.10;77.50;;;;;;5101198;28;20027;-71
2023/01/17 07:48:14;;;;;;;6.77;1.97;;;5.10;77.50;;;;;;5097335;28;20047;-70
2023/01/17 07:50:40;;;;;;;6.33;1.93;;;5.10;77.40;;;;;;5108862;28;20020;-71
2023/01/17 07:53:06;;;;;;;6.47;2.27;;;5.20;77.50;;;;;;5116338;28;20032;-70
2023/01/17 07:55:32;;;;;;;6.47;2.20;;;5.20;77.60;;;;;;5111541;28;20105;-71
2023/01/17 07:57:57;;;;;;;9.33;2.60;;;5.20;77.60;;;;;;5114510;28;20036;-71
2023/01/17 08:00:26;;;;;;;6.90;2.13;;;5.20;77.50;;;;;;5109384;28;20024;-70
2023/01/17 08:02:59;;;;;;;7.23;2.43;;;5.20;77.50;;;;;;5114125;28;20350;-68
2023/01/17 08:05:26;;;;;;;6.40;2.50;;;5.20;77.40;;;;;;5110633;28;20524;-69
2023/01/17 08:07:53;;;;;;;6.70;2.50;;;5.20;77.40;;;;;;5103753;28;20062;-70
2023/01/17 08:10:19;;;;;;;9.03;3.23;;;5.20;77.50;;;;;;5115221;28;20037;-70
2023/01/17 08:12:46;;;;;;;9.10;3.17;;;5.20;77.40;;;;;;5100450;28;20036;-73
2023/01/17 08:15:12;;;;;;;8.53;3.30;;;5.20;77.30;;;;;;5096970;28;20115;-70
2023/01/17 08:17:38;;;;;;;9.97;3.40;;;5.20;77.30;;;;;;5102381;28;20123;-68
2023/01/17 08:20:05;;;;;;;7.47;3.30;;;5.30;77.30;;;;;;5094627;28;20145;-69
2023/01/17 08:22:31;;;;;;;8.40;3.03;;;5.30;77.30;;;;;;5110482;28;20020;-69
2023/01/17 08:24:57;;;;;;;9.53;3.90;;;5.30;77.30;;;;;;5111492;28;20031;-69
2023/01/17 08:27:23;;;;;;;6.63;3.43;;;5.30;77.20;;;;;;5096403;28;20444;-69
2023/01/17 08:29:49;;;;;;;11.80;4.03;;;5.30;77.10;;;;;;5096875;28;20042;-70
2023/01/17 08:32:15;;;;;;;7.57;3.70;;;5.30;77.10;;;;;;5090675;28;20681;-68
2023/01/17 08:34:41;;;;;;;10.73;4.40;;;5.30;77.10;;;;;;5114880;28;20035;-69
2023/01/17 08:37:07;;;;;;;11.70;4.17;;;5.30;77.00;;;;;;5110473;28;20340;-66
2023/01/17 08:39:33;;;;;;;14.20;4.13;;;5.40;77.00;;;;;;5112076;28;20051;-66
2023/01/17 08:41:59;;;;;;;9.90;4.07;;;5.50;76.90;;;;;;5107799;28;20034;-66
2023/01/17 08:44:24;;;;;;;11.70;4.77;;;5.50;76.80;;;;;;5110634;28;20104;-67
2023/01/17 08:46:50;;;;;;;11.80;4.50;;;5.50;76.70;;;;;;5108019;28;20032;-66
2023/01/17 08:49:16;;;;;;;11.23;5.03;;;5.50;76.70;;;;;;5096862;28;20028;-66
2023/01/17 08:51:41;;;;;;;11.33;4.80;;;5.60;76.60;;;;;;5096453;28;20039;-65
2023/01/17 08:54:11;;;;;;;10.00;5.30;;;5.60;76.60;;;;;;5112121;27;20031;-67
2023/01/17 08:56:37;;;;;;;13.17;5.00;;;5.60;76.60;;;;;;5108254;28;20030;-66
2023/01/17 08:59:03;;;;;;;11.87;5.63;;;5.70;76.50;;;;;;5090499;28;20070;-67
2023/01/17 09:01:29;;;;;;;11.57;5.87;;;5.80;76.40;;;;;;5115660;28;20416;-67
2023/01/17 09:03:55;;;;;;;10.00;5.67;;;5.80;76.30;;;;;;5095526;28;20045;-67
2023/01/17 09:06:20;;;;;;;12.37;5.57;;;5.90;76.20;;;;;;5120440;27;20356;-67
2023/01/17 09:08:48;;;;;;;12.97;6.20;;;6.00;76.10;;;;;;5113991;28;20031;-68
2023/01/17 09:11:16;;;;;;;13.40;6.30;;;6.00;75.90;;;;;;5112626;28;20073;-68
2023/01/17 09:13:42;;;;;;;12.07;6.50;;;6.10;75.80;;;;;;5114393;28;20486;-66
2023/01/17 09:16:08;;;;;;;11.00;5.90;;;6.00;75.70;;;;;;5112150;28;20028;-68
2023/01/17 09:18:35;;;;;;;11.73;6.23;;;6.10;75.70;;;;;;5110213;28;20330;-67
2023/01/17 09:21:13;;;;;;;11.27;6.43;;;6.10;75.70;;;;;;5108570;28;20020;-68
2023/01/17 09:23:39;;;;;;;12.33;6.20;;;6.20;75.60;;;;;;5114812;28;20024;-67
2023/01/17 09:26:05;;;;;;;13.60;6.53;;;6.20;75.50;;;;;;5102497;28;20585;-68
2023/01/17 09:28:38;;;;;;;13.03;7.23;;;6.10;75.40;;;;;;5113243;28;20027;-68
2023/01/17 09:31:07;;;;;;;11.53;6.70;;;6.20;75.40;;;;;;5107433;28;20042;-67
2023/01/17 09:33:33;;;;;;;13.23;7.10;;;6.30;75.20;;;;;;5113297;28;20043;-68
2023/01/17 09:36:04;;;;;;;12.87;7.07;;;6.40;75.10;;;;;;5097516;28;20097;-68
2023/01/17 09:38:31;;;;;;;13.18;6.68;;;6.40;74.90;;;;;;5110835;28;20115;-68
2023/01/17 09:40:57;;;;;;;11.97;6.67;;;6.40;74.80;;;;;;5112457;28;20459;-68
2023/01/17 09:43:36;;;;;;;16.13;7.03;;;6.40;74.80;;;;;;5113514;28;20043;-67
2023/01/17 09:46:04;;;;;;;12.27;6.37;;;6.50;74.70;;;;;;5114115;28;20035;-68
2023/01/17 09:48:37;;;;;;;12.00;6.47;;;6.50;74.50;;;;;;5114885;28;20031;-67
2023/01/17 09:51:23;;;;;;;12.00;7.13;;;6.60;74.30;;;;;;5112249;28;20034;-68
2023/01/17 09:53:50;;;;;;;11.10;6.60;;;6.70;74.10;;;;;;5105269;28;20040;-68
2023/01/17 09:56:36;;;;;;;11.90;6.43;;;6.70;74.10;;;;;;5094610;28;20310;-67
2023/01/17 09:59:28;;;;;;;12.50;6.27;;;6.60;73.90;;;;;;5093551;28;20126;-68
2023/01/17 10:02:08;;;;;;;11.77;6.30;;;6.60;73.80;;;;;;5098656;28;20036;-68
2023/01/17 10:04:57;;;;;;;11.93;5.87;;;6.60;74.00;;;;;;5114144;28;20356;-68
2023/01/17 10:07:23;;;;;;;12.13;6.43;;;6.60;74.10;;;;;;5113763;28;20031;-68
2023/01/17 10:10:11;;;;;;;12.27;6.97;;;6.50;74.20;;;;;;5114754;28;20019;-68
2023/01/17 10:12:49;;;;;;;9.67;6.23;;;6.50;74.10;;;;;;5101223;28;20444;-68
2023/01/17 10:15:27;;;;;;;10.10;5.80;;;6.50;74.20;;;;;;5094244;28;20040;-68
2023/01/17 10:18:05;;;;;;;11.07;6.13;;;6.50;74.20;;;;;;5097501;28;20440;-68
2023/01/17 10:20:42;;;;;;;11.53;6.17;;;6.50;74.00;;;;;;5109356;28;20485;-68
2023/01/17 10:23:24;;;;;;;11.10;6.07;;;6.50;74.00;;;;;;5111263;28;20027;-68
2023/01/17 10:25:51;;;;;;;;;;;6.50;74.00;;;;;;5117970;28;20436;-68
2023/01/17 10:28:32;;;;;;;11.60;5.60;;;6.50;74.10;;;;;;5099586;28;20410;-68
2023/01/17 10:31:03;;;;;;;11.07;5.50;;;6.50;74.00;;;;;;5116298;28;20035;-68
2023/01/17 10:33:36;;;;;;;11.20;5.30;;;6.50;73.90;;;;;;5096831;28;20047;-68
2023/01/17 10:36:11;;;;;;;11.23;5.63;;;6.50;73.80;;;;;;5116353;28;20085;-68
2023/01/17 10:38:38;;;;;;;10.00;5.03;;;6.60;73.90;;;;;;5117399;28;20020;-68
2023/01/17 10:41:16;;;;;;;11.57;5.90;;;6.50;73.80;;;;;;5117334;28;20440;-68
2023/01/17 10:43:50;;;;;;;10.57;5.63;;;6.60;73.80;;;;;;5112793;28;20019;-68
2023/01/17 10:46:22;;;;;;;10.80;5.70;;;6.60;73.70;;;;;;5114778;27;20020;-68
2023/01/17 10:48:50;;;;;;;;;;;6.60;73.50;;;;;;5117885;28;20132;-67
2023/01/17 10:51:58;;;;;;;11.67;4.37;;;6.60;73.50;;;;;;5115677;28;19924;-67
2023/01/17 10:54:45;;;;;;;8.40;4.63;;;6.60;73.50;;;;;;5113570;28;20452;-68
2023/01/17 10:57:21;;;;;;;10.33;4.67;;;6.60;73.50;;;;;;5117213;28;20061;-68
2023/01/17 10:59:46;;;;;;;10.70;5.30;;;6.60;73.40;;;;;;5114746;28;20031;-69
2023/01/17 11:02:25;;;;;;;15.07;5.07;;;6.60;73.30;;;;;;5116158;28;20084;-68
2023/01/17 11:04:53;;;;;;;11.37;5.17;;;6.60;73.20;;;;;;5110839;28;20034;-69
2023/01/17 11:07:26;;;;;;;11.07;4.87;;;6.70;73.30;;;;;;5115024;28;20028;-68
2023/01/17 11:09:56;;;;;;;12.30;5.80;;;6.70;73.30;;;;;;5108181;28;20024;-68
2023/01/17 11:12:32;;;;;;;11.02;5.10;;;6.70;73.20;;;;;;5112698;28;20027;-68
2023/01/17 11:15:04;;;;;;;10.50;4.80;;;6.70;73.20;;;;;;5101427;28;20453;-68
2023/01/17 11:17:31;;;;;;;8.83;4.90;;;6.70;73.20;;;;;;5079415;28;20062;-68
2023/01/17 11:20:24;;;;;;;11.10;4.80;;;6.70;73.00;;;;;;5114491;28;20131;-69
2023/01/17 11:23:16;;;;;;;10.57;4.70;;;6.70;72.90;;;;;;5097201;28;20019;-68
2023/01/17 11:26:10;;;;;;;10.75;4.80;;;6.60;72.90;;;;;;5098341;28;20028;-68
2023/01/17 11:28:38;;;;;;;11.17;4.37;;;6.70;73.00;;;;;;5114732;28;20047;-68
2023/01/17 11:31:25;;;;;;;8.03;4.23;;;6.60;73.00;;;;;;5128067;27;20032;-68
2023/01/17 11:34:17;;;;;;;11.33;4.73;;;6.60;73.00;;;;;;5114947;28;20476;-68
2023/01/17 11:36:43;;;;;;;9.50;4.60;;;6.60;73.00;;;;;;5104248;28;20119;-68
2023/01/17 11:39:18;;;;;;;9.50;4.80;;;6.60;73.10;;;;;;5116432;28;20158;-68
2023/01/17 11:41:46;;;;;;;9.97;4.93;;;6.70;73.00;;;;;;5117232;28;20027;-68
2023/01/17 11:44:31;;;;;;;9.97;4.80;;;6.80;72.90;;;;;;5112637;28;20144;-68
2023/01/17 11:47:09;;;;;;;8.70;4.77;;;6.90;72.60;;;;;;5115714;28;20028;-68
2023/01/17 11:49:39;;;;;;;10.00;4.37;;;6.90;72.50;;;;;;5128941;27;20027;-69
2023/01/17 11:52:09;;;;;;;10.30;4.80;;;6.90;72.50;;;;;;5113812;28;20121;-68
2023/01/17 11:54:41;;;;;;;9.90;4.17;;;7.00;72.50;;;;;;5112755;28;20437;-69
2023/01/17 11:57:19;;;;;;;12.10;4.80;;;7.00;72.30;;;;;;5111399;28;20047;-69
2023/01/17 11:59:46;;;;;;;9.57;4.10;;;7.00;72.20;;;;;;5117107;27;20043;-68
2023/01/17 12:02:36;;;;;;;9.00;4.50;;;7.00;72.20;;;;;;5113168;28;20019;-69
2023/01/17 12:05:26;;;;;;;10.73;3.50;;;7.00;72.10;;;;;;5127663;27;20036;-68
2023/01/17 12:08:14;;;;;;;9.80;4.43;;;7.00;72.10;;;;;;5119917;27;20104;-69
2023/01/17 12:10:49;;;;;;;9.10;4.00;;;6.90;72.10;;;;;;5113593;28;20042;-69
2023/01/17 12:16:31;;;;;;;8.30;3.53;;;6.90;72.00;;;;;;5114849;28;20028;-68
2023/01/17 12:19:31;;;;;;;9.10;3.50;;;6.80;72.00;;;;;;5130284;27;20102;-68
2023/01/17 12:22:21;;;;;;;7.63;3.63;;;6.80;72.00;;;;;;5113874;28;20028;-69
2023/01/17 12:25:16;;;;;;;7.87;3.87;;;6.80;72.00;;;;;;5114313;28;20055;-68
2023/01/17 12:28:05;;;;;;;8.00;3.73;;;6.70;72.00;;;;;;5055470;28;20094;-68
2023/01/17 12:30:34;;;;;;;8.20;3.67;;;6.70;72.00;;;;;;5111809;28;20032;-68
2023/01/17 12:33:17;;;;;;;8.07;3.60;;;6.70;72.10;;;;;;5113850;28;20039;-68
2023/01/17 12:35:51;;;;;;;10.77;4.17;;;6.70;71.90;;;;;;5113289;28;20345;-68
2023/01/17 12:38:27;;;;;;;8.63;3.77;;;6.70;71.90;;;;;;5114417;28;20443;-67
2023/01/17 12:41:21;;;;;;;7.63;3.60;;;6.80;71.90;;;;;;5113539;28;20015;-67
2023/01/17 12:43:51;;;;;;;6.10;3.20;;;6.80;71.80;;;;;;5114342;28;20371;-67
2023/01/17 12:46:30;;;;;;;13.90;4.10;;;6.80;71.70;;;;;;5115063;28;20448;-67
2023/01/17 12:49:21;;;;;;;10.87;3.60;;;6.80;71.50;;;;;;5096892;28;20356;-67
2023/01/17 12:51:53;;;;;;;7.53;3.43;;;6.80;71.40;;;;;;5109838;28;20042;-68
2023/01/17 12:54:38;;;;;;;7.57;3.30;;;6.90;71.40;;;;;;5113142;28;20034;-68
2023/01/17 12:57:30;;;;;;;7.63;3.37;;;6.90;71.10;;;;;;5114108;28;20024;-67
2023/01/17 13:00:18;;;;;;;8.27;3.20;;;6.90;70.90;;;;;;5096507;28;20455;-67
2023/01/17 13:02:56;;;;;;;6.87;2.97;;;6.80;70.80;;;;;;5111649;28;20464;-66
2023/01/17 13:05:41;;;;;;;7.33;2.90;;;6.90;70.80;;;;;;5102061;28;20460;-67
2023/01/17 13:08:26;;;;;;;7.13;3.00;;;6.80;70.60;;;;;;5111418;28;20020;-66
2023/01/17 13:11:26;;;;;;;9.00;3.37;;;6.90;70.40;;;;;;5108698;28;20092;-65
2023/01/17 13:13:56;;;;;;;8.10;3.13;;;6.90;70.40;;;;;;5119515;27;20365;-65
2023/01/17 13:16:57;;;;;;;8.63;3.33;;;6.90;70.40;;;;;;5098379;28;20045;-66
2023/01/17 13:19:27;;;;;;;6.35;3.17;;;6.90;70.20;;;;;;5127475;27;20024;-66
2023/01/17 13:21:55;;;;;;;6.17;2.70;;;6.90;70.80;;;;;;5112562;28;20016;-66
2023/01/17 13:24:27;;;;;;;7.03;2.87;;;6.90;69.90;;;;;;5109928;28;20114;-66
2023/01/17 13:27:05;;;;;;;9.20;2.57;;;6.90;69.50;;;;;;5089769;28;20119;-66
2023/01/17 13:29:58;;;;;;;6.63;2.63;;;6.90;69.40;;;;;;5110818;28;20024;-66
2023/01/17 13:32:26;;;;;;;7.07;2.73;;;6.90;69.00;;;;;;5097340;28;20058;-66
2023/01/17 13:35:01;;;;;;;7.30;2.50;;;6.90;69.10;;;;;;5114469;28;20027;-66
2023/01/17 13:37:38;;;;;;;6.63;2.73;;;6.90;69.00;;;;;;5115606;28;20031;-66
2023/01/17 13:40:25;;;;;;;7.53;2.30;;;6.80;68.90;;;;;;5115250;28;20032;-66
2023/01/17 13:42:59;;;;;;;6.50;2.63;;;6.80;68.80;;;;;;5114687;28;20102;-66
2023/01/17 13:45:34;;;;;;;7.70;3.03;;;6.80;68.70;;;;;;5113131;28;20027;-66
2023/01/17 13:48:16;;;;;;;5.90;2.50;;;6.80;68.60;;;;;;5115210;28;20183;-66
2023/01/17 13:50:57;;;;;;;5.95;2.50;;;6.80;68.40;;;;;;5113459;28;20031;-66
2023/01/17 13:53:37;;;;;;;5.78;1.95;;;6.80;68.40;;;;;;5114970;28;20020;-67
2023/01/17 13:56:18;;;;;;;4.57;2.10;;;6.80;68.30;;;;;;5100768;28;20345;-66
2023/01/17 13:58:45;;;;;;;4.83;2.13;;;6.70;68.30;;;;;;5113937;28;20023;-66
2023/01/17 14:01:11;;;;;;;7.23;2.20;;;6.70;68.20;;;;;;5114879;28;20070;-66
2023/01/17 14:04:01;;;;;;;7.23;2.10;;;6.70;68.20;;;;;;5114036;28;20108;-66
2023/01/17 14:06:45;;;;;;;6.43;2.43;;;6.70;68.10;;;;;;5104193;28;20448;-66
2023/01/17 14:09:15;;;;;;;6.60;2.57;;;6.70;68.20;;;;;;5113909;28;20055;-66
2023/01/17 14:11:58;;;;;;;7.80;2.40;;;6.70;68.20;;;;;;5114648;28;20035;-66
2023/01/17 14:14:38;;;;;;;6.33;2.50;;;6.70;68.00;;;;;;5114773;28;20019;-64
2023/01/17 14:17:30;;;;;;;9.10;2.43;;;6.70;67.90;;;;;;5112477;28;20047;-64
2023/01/17 14:19:59;;;;;;;;;;;6.70;67.80;;;;;;5112955;28;20035;-65
2023/01/17 14:22:34;;;;;;;5.70;2.33;;;6.70;68.10;;;;;;5106378;28;19955;-65
2023/01/17 14:25:08;;;;;;;5.87;2.23;;;6.60;68.00;;;;;;5105708;28;20019;-65
2023/01/17 14:27:42;;;;;;;5.73;2.37;;;6.60;68.00;;;;;;5113415;28;20103;-65
2023/01/17 14:30:35;;;;;;;6.50;2.40;;;6.60;67.80;;;;;;5113388;28;20024;-65
2023/01/17 14:33:11;;;;;;;7.60;2.50;;;6.60;67.60;;;;;;5111900;28;20055;-64
2023/01/17 14:35:53;;;;;;;5.83;1.93;;;6.60;67.60;;;;;;5109667;28;20110;-65
2023/01/17 14:38:26;;;;;;;5.60;2.00;;;6.60;67.40;;;;;;5092627;28;20031;-65
2023/01/17 14:41:08;;;;;;;5.77;2.50;;;6.60;67.40;;;;;;5109781;28;20399;-65
2023/01/17 14:43:41;;;;;;;4.95;1.90;;;6.50;67.30;;;;;;5113358;28;20051;-64